Time;durP1;ratioP1;P1;durP2;ratioP2;P2;SDS_P1;SDS_P2;PMS_P1;PMS_P2;Temp;Humidity;BMP_temperature;BMP_pressure;BME280_temperature;BME280_humidity;BME280_pressure;Samples;Min_cycle;Max_cycle;Signal;HPM_P1;HPM_P2
2022/09/01 00:02:14;;;;;;;8.50;4.75;;;;;;;;;;5099995;28;20274;-80
2022/09/01 00:04:43;;;;;;;8.82;4.78;;;;;;;;;;5092578;28;20561;-80
2022/09/01 00:07:10;;;;;;;8.18;4.50;;;;;;;;;;5104766;28;20197;-80
2022/09/01 00:09:37;;;;;;;7.25;4.57;;;;;;;;;;5092737;28;20194;-80
2022/09/01 00:12:07;;;;;;;10.95;4.43;;;;;;;;;;5109833;28;20281;-80
2022/09/01 00:14:36;;;;;;;8.98;4.30;;;;;;;;;;5078571;28;20671;-80
2022/09/01 00:17:05;;;;;;;7.82;4.35;;;;;;;;;;5072684;28;20317;-80
2022/09/01 00:19:35;;;;;;;10.27;4.57;;;;;;;;;;5080619;28;20266;-80
2022/09/01 00:22:03;;;;;;;11.73;4.53;;;;;;;;;;5113579;28;20251;-80
2022/09/01 00:24:30;;;;;;;6.43;4.60;;;;;;;;;;5111291;28;20285;-79
2022/09/01 00:26:57;;;;;;;11.80;4.90;;;;;;;;;;5107774;28;20229;-79
2022/09/01 00:29:26;;;;;;;8.85;4.55;;;;;;;;;;5106494;28;20229;-79
2022/09/01 00:31:54;;;;;;;13.32;5.00;;;;;;;;;;5092894;28;20286;-79
2022/09/01 00:34:21;;;;;;;9.15;5.30;;;;;;;;;;5103056;28;20201;-79
2022/09/01 00:36:49;;;;;;;9.70;5.07;;;;;;;;;;5083991;28;20252;-79
2022/09/01 00:39:16;;;;;;;11.10;4.90;;;;;;;;;;5087240;28;20227;-79
2022/09/01 00:41:45;;;;;;;9.32;5.20;;;;;;;;;;5072194;28;20274;-79
2022/09/01 00:44:14;;;;;;;9.02;5.60;;;;;;;;;;5105177;28;20186;-79
2022/09/01 00:46:44;;;;;;;7.55;4.75;;;;;;;;;;5113591;28;20277;-79
2022/09/01 00:49:15;;;;;;;8.35;5.07;;;;;;;;;;5113190;28;20221;-79
2022/09/01 00:51:43;;;;;;;11.98;5.30;;;;;;;;;;5097021;28;20234;-79
2022/09/01 00:54:13;;;;;;;11.15;5.07;;;;;;;;;;5107399;28;20225;-78
2022/09/01 00:56:41;;;;;;;10.63;5.45;;;;;;;;;;5113280;28;20268;-78
2022/09/01 00:59:10;;;;;;;7.75;5.03;;;;;;;;;;5112983;28;20304;-78
2022/09/01 01:01:37;;;;;;;8.02;5.53;;;;;;;;;;5112218;28;20197;-78
2022/09/01 01:04:13;;;;;;;11.23;6.20;;;;;;;;;;5103499;28;20252;-78
2022/09/01 01:06:42;;;;;;;11.52;5.78;;;;;;;;;;5101621;28;20592;-78
2022/09/01 01:09:10;;;;;;;13.48;6.20;;;;;;;;;;5112607;28;20206;-78
2022/09/01 01:11:37;;;;;;;11.00;6.43;;;;;;;;;;5105194;28;20222;-80
2022/09/01 01:14:10;;;;;;;12.63;5.85;;;;;;;;;;5092431;28;20208;-80
2022/09/01 01:16:39;;;;;;;10.50;5.53;;;;;;;;;;5092591;28;20194;-80
2022/09/01 01:23:00;;;;;;;11.32;5.35;;;;;;;;;;5099172;28;20234;-80
2022/09/01 01:24:44;;;;;;;10.98;4.80;;;;;;;;;;5092418;28;20338;-80
2022/09/01 01:27:12;;;;;;;8.40;4.72;;;;;;;;;;5092647;28;20636;-80
2022/09/01 01:29:40;;;;;;;10.30;5.10;;;;;;;;;;5112351;28;20744;-80
2022/09/01 01:32:12;;;;;;;10.00;4.95;;;;;;;;;;5093202;28;20278;-80
2022/09/01 01:34:44;;;;;;;7.93;5.07;;;;;;;;;;5109087;28;20280;-80
2022/09/01 01:37:12;;;;;;;6.40;4.57;;;;;;;;;;5093936;28;20619;-80
2022/09/01 01:39:41;;;;;;;9.50;5.10;;;;;;;;;;5098045;28;20584;-80
2022/09/01 01:42:11;;;;;;;10.18;5.03;;;;;;;;;;5111958;28;20233;-80
2022/09/01 01:44:39;;;;;;;9.93;4.50;;;;;;;;;;5112323;28;20618;-80
2022/09/01 01:47:08;;;;;;;10.82;5.15;;;;;;;;;;5106088;28;20191;-80
2022/09/01 01:49:36;;;;;;;8.82;4.55;;;;;;;;;;5072019;28;20207;-80
2022/09/01 01:52:04;;;;;;;10.10;5.00;;;;;;;;;;5089198;28;20289;-80
2022/09/01 01:54:32;;;;;;;10.40;4.80;;;;;;;;;;5092240;28;20259;-80
2022/09/01 01:56:59;;;;;;;7.93;4.50;;;;;;;;;;5105410;28;20213;-80
2022/09/01 01:59:28;;;;;;;7.90;5.00;;;;;;;;;;5111655;28;20308;-80
2022/09/01 02:01:55;;;;;;;8.75;4.80;;;;;;;;;;5112332;28;20573;-80
2022/09/01 02:04:23;;;;;;;8.38;4.93;;;;;;;;;;5098148;28;20222;-80
2022/09/01 02:06:50;;;;;;;10.05;5.55;;;;;;;;;;5087819;28;20257;-80
2022/09/01 02:09:19;;;;;;;7.30;4.70;;;;;;;;;;5071363;28;20233;-80
2022/09/01 02:11:46;;;;;;;9.88;5.15;;;;;;;;;;5091647;28;20243;-80
2022/09/01 02:14:14;;;;;;;11.35;5.15;;;;;;;;;;5077030;28;20199;-80
2022/09/01 02:16:43;;;;;;;10.23;4.90;;;;;;;;;;5075071;28;20645;-80
2022/09/01 02:19:11;;;;;;;8.03;4.90;;;;;;;;;;5095988;28;20215;-79
2022/09/01 02:21:43;;;;;;;7.90;4.80;;;;;;;;;;5111599;28;20266;-80
2022/09/01 02:24:10;;;;;;;9.70;5.53;;;;;;;;;;5114237;28;20285;-80
2022/09/01 02:26:41;;;;;;;12.55;5.50;;;;;;;;;;5112890;28;20232;-80
2022/09/01 02:29:16;;;;;;;8.77;5.07;;;;;;;;;;5084552;28;20237;-80
2022/09/01 02:31:45;;;;;;;7.90;5.30;;;;;;;;;;5082472;28;20209;-80
2022/09/01 02:34:13;;;;;;;9.63;5.50;;;;;;;;;;5086343;28;20191;-80
2022/09/01 02:36:43;;;;;;;11.15;5.80;;;;;;;;;;5094754;28;20203;-80
2022/09/01 02:39:10;;;;;;;7.57;5.40;;;;;;;;;;5094840;28;20709;-80
2022/09/01 02:41:38;;;;;;;9.63;5.43;;;;;;;;;;5095331;28;20226;-80
2022/09/01 02:44:10;;;;;;;9.57;5.60;;;;;;;;;;5115083;28;20549;-80
2022/09/01 02:46:40;;;;;;;10.17;6.00;;;;;;;;;;5094352;28;20195;-80
2022/09/01 02:49:14;;;;;;;12.80;6.57;;;;;;;;;;5074258;28;20195;-80
2022/09/01 02:51:41;;;;;;;10.93;6.53;;;;;;;;;;5079708;28;20195;-80
2022/09/01 02:54:08;;;;;;;13.17;6.20;;;;;;;;;;5106725;28;20225;-80
2022/09/01 02:56:36;;;;;;;9.40;6.17;;;;;;;;;;5114139;28;20229;-80
2022/09/01 02:59:03;;;;;;;9.60;6.13;;;;;;;;;;5099620;28;20319;-80
2022/09/01 03:01:31;;;;;;;10.33;5.90;;;;;;;;;;5094321;28;20648;-80
2022/09/01 03:03:59;;;;;;;9.07;5.93;;;;;;;;;;5094292;28;20244;-79
2022/09/01 03:06:30;;;;;;;10.97;6.40;;;;;;;;;;5094468;28;20226;-80
2022/09/01 03:08:58;;;;;;;9.30;6.03;;;;;;;;;;5094449;28;20190;-80
2022/09/01 03:11:26;;;;;;;10.67;5.90;;;;;;;;;;5106452;28;20186;-80
2022/09/01 03:13:54;;;;;;;8.90;6.20;;;;;;;;;;5108365;28;20201;-80
2022/09/01 03:16:22;;;;;;;9.50;6.50;;;;;;;;;;5107875;28;20222;-80
2022/09/01 03:18:49;;;;;;;12.07;6.20;;;;;;;;;;5094207;28;20694;-80
2022/09/01 03:21:16;;;;;;;11.43;6.57;;;;;;;;;;5114144;28;20662;-80
2022/09/01 03:23:46;;;;;;;7.87;6.10;;;;;;;;;;5105343;28;20238;-80
2022/09/01 03:26:13;;;;;;;9.83;6.20;;;;;;;;;;5093536;28;20267;-80
2022/09/01 03:28:41;;;;;;;10.33;6.30;;;;;;;;;;5093926;28;20285;-80
2022/09/01 03:31:08;;;;;;;12.17;6.40;;;;;;;;;;5093881;28;20242;-80
2022/09/01 03:33:36;;;;;;;12.77;6.87;;;;;;;;;;5094056;28;20199;-80
2022/09/01 03:36:03;;;;;;;11.10;6.63;;;;;;;;;;5093749;28;20194;-80
2022/09/01 03:38:32;;;;;;;11.83;6.70;;;;;;;;;;5093901;28;20218;-80
2022/09/01 03:41:03;;;;;;;7.63;6.13;;;;;;;;;;5107862;28;20233;-80
2022/09/01 03:43:30;;;;;;;9.70;6.03;;;;;;;;;;5112807;28;20252;-80
2022/09/01 03:45:59;;;;;;;16.50;6.70;;;;;;;;;;5113405;28;20802;-80
2022/09/01 03:48:27;;;;;;;11.87;6.57;;;;;;;;;;5110358;28;20198;-80
2022/09/01 03:50:55;;;;;;;11.53;6.83;;;;;;;;;;5113383;28;20244;-79
2022/09/01 03:53:26;;;;;;;9.13;6.17;;;;;;;;;;5102452;28;20331;-79
2022/09/01 03:55:56;;;;;;;10.57;6.70;;;;;;;;;;5093202;28;20320;-79
2022/09/01 03:58:25;;;;;;;9.70;7.10;;;;;;;;;;5101976;28;20697;-79
2022/09/01 04:00:54;;;;;;;9.83;7.00;;;;;;;;;;5113630;28;20202;-80
2022/09/01 04:03:22;;;;;;;8.03;7.20;;;;;;;;;;5098904;28;20189;-79
2022/09/01 04:05:50;;;;;;;15.23;7.77;;;;;;;;;;5111810;28;20236;-80
2022/09/01 04:08:18;;;;;;;10.77;7.23;;;;;;;;;;5103116;28;20202;-79
2022/09/01 04:10:48;;;;;;;12.53;7.80;;;;;;;;;;5092519;28;20256;-79
2022/09/01 04:13:16;;;;;;;11.47;7.63;;;;;;;;;;5098230;28;20260;-79
2022/09/01 04:15:44;;;;;;;11.40;8.07;;;;;;;;;;5113547;28;20246;-79
2022/09/01 04:18:18;;;;;;;10.77;7.87;;;;;;;;;;5112805;28;20245;-79
2022/09/01 04:20:50;;;;;;;12.23;7.70;;;;;;;;;;5112203;28;20229;-79
2022/09/01 04:23:19;;;;;;;11.57;7.77;;;;;;;;;;5093434;28;20285;-79
2022/09/01 04:25:48;;;;;;;12.57;7.90;;;;;;;;;;5092947;28;20218;-79
2022/09/01 04:28:21;;;;;;;9.83;7.40;;;;;;;;;;5092418;28;20728;-79
2022/09/01 04:30:50;;;;;;;12.97;7.53;;;;;;;;;;5092849;28;20213;-79
2022/09/01 04:33:18;;;;;;;9.13;7.57;;;;;;;;;;5101652;28;20212;-79
2022/09/01 04:35:45;;;;;;;11.67;7.60;;;;;;;;;;5112292;28;20292;-80
2022/09/01 04:38:14;;;;;;;8.73;7.83;;;;;;;;;;5092029;28;20298;-79
2022/09/01 04:40:42;;;;;;;11.77;7.97;;;;;;;;;;5093358;28;20229;-79
2022/09/01 04:43:09;;;;;;;9.17;8.00;;;;;;;;;;5099088;28;20229;-79
2022/09/01 04:45:37;;;;;;;12.60;8.47;;;;;;;;;;5111844;28;20197;-79
2022/09/01 04:48:06;;;;;;;9.90;7.80;;;;;;;;;;5106467;28;20200;-79
2022/09/01 04:50:34;;;;;;;11.50;8.17;;;;;;;;;;5094873;28;20235;-79
2022/09/01 04:53:02;;;;;;;12.70;8.20;;;;;;;;;;5105647;28;20200;-79
2022/09/01 04:55:30;;;;;;;12.13;8.33;;;;;;;;;;5112410;28;20229;-79
2022/09/01 04:57:58;;;;;;;12.20;7.47;;;;;;;;;;5111746;28;20227;-79
2022/09/01 05:00:30;;;;;;;13.30;8.13;;;;;;;;;;5112523;28;20692;-80
2022/09/01 05:03:01;;;;;;;12.90;8.33;;;;;;;;;;5104479;28;20204;-79
2022/09/01 05:05:38;;;;;;;11.27;8.20;;;;;;;;;;5071993;28;20206;-79
2022/09/01 05:08:05;;;;;;;12.87;8.43;;;;;;;;;;5090276;28;20199;-79
2022/09/01 05:10:33;;;;;;;8.77;7.87;;;;;;;;;;5091536;28;20244;-79
2022/09/01 05:13:00;;;;;;;13.10;8.73;;;;;;;;;;5090800;28;20625;-79
2022/09/01 05:15:29;;;;;;;12.13;8.90;;;;;;;;;;5109044;28;20576;-79
2022/09/01 05:17:57;;;;;;;13.03;8.80;;;;;;;;;;5107966;28;20214;-79
2022/09/01 05:20:26;;;;;;;11.73;8.40;;;;;;;;;;5091892;28;20579;-79
2022/09/01 05:22:56;;;;;;;14.17;8.67;;;;;;;;;;5097275;28;20234;-79
2022/09/01 05:25:23;;;;;;;10.40;8.13;;;;;;;;;;5091526;28;20582;-78
2022/09/01 05:27:51;;;;;;;9.63;7.90;;;;;;;;;;5091725;28;20226;-78
2022/09/01 05:30:18;;;;;;;13.17;8.07;;;;;;;;;;5092303;28;20576;-78
2022/09/01 05:32:47;;;;;;;14.07;8.57;;;;;;;;;;5092122;28;20733;-78
2022/09/01 05:35:15;;;;;;;10.50;7.87;;;;;;;;;;5095879;28;20199;-78
2022/09/01 05:37:42;;;;;;;12.77;8.40;;;;;;;;;;5097603;28;20194;-79
2022/09/01 05:40:14;;;;;;;11.67;7.47;;;;;;;;;;5098566;28;20251;-78
2022/09/01 05:42:42;;;;;;;11.90;7.80;;;;;;;;;;5107774;28;20666;-79
2022/09/01 05:45:11;;;;;;;10.17;7.23;;;;;;;;;;5104359;28;20296;-77
2022/09/01 05:47:39;;;;;;;10.30;7.37;;;;;;;;;;5089907;28;20194;-79
2022/09/01 05:50:09;;;;;;;14.30;7.57;;;;;;;;;;5093665;28;20281;-79
2022/09/01 05:52:37;;;;;;;11.47;8.17;;;;;;;;;;5092439;28;20291;-79
2022/09/01 05:55:07;;;;;;;11.13;7.13;;;;;;;;;;5089474;28;20234;-79
2022/09/01 05:57:38;;;;;;;12.60;7.53;;;;;;;;;;5090892;28;20219;-80
2022/09/01 06:00:09;;;;;;;10.03;7.47;;;;;;;;;;5095779;28;20889;-79
2022/09/01 06:02:38;;;;;;;15.03;7.83;;;;;;;;;;5096488;28;20201;-80
2022/09/01 06:05:06;;;;;;;9.90;7.50;;;;;;;;;;5093206;28;20221;-79
2022/09/01 06:07:36;;;;;;;10.67;7.47;;;;;;;;;;5099273;28;20288;-79
2022/09/01 06:10:04;;;;;;;9.93;7.00;;;;;;;;;;5093146;28;20584;-79
2022/09/01 06:12:32;;;;;;;10.67;6.70;;;;;;;;;;5094795;28;20310;-79
2022/09/01 06:15:01;;;;;;;8.57;6.87;;;;;;;;;;5096661;28;20209;-79
2022/09/01 06:17:29;;;;;;;11.77;7.50;;;;;;;;;;5094260;28;20194;-80
2022/09/01 06:19:57;;;;;;;8.73;7.17;;;;;;;;;;5090882;28;20596;-80
2022/09/01 06:22:26;;;;;;;10.90;7.10;;;;;;;;;;5095252;28;20252;-80
2022/09/01 06:24:54;;;;;;;8.37;6.70;;;;;;;;;;5087141;28;20690;-80
2022/09/01 06:27:21;;;;;;;10.43;6.90;;;;;;;;;;5092295;28;20203;-79
2022/09/01 06:29:55;;;;;;;7.83;6.50;;;;;;;;;;5096354;28;20289;-79
2022/09/01 06:32:24;;;;;;;12.27;6.63;;;;;;;;;;5085181;28;20673;-80
2022/09/01 06:34:52;;;;;;;11.20;7.23;;;;;;;;;;5096822;28;20274;-80
2022/09/01 06:37:21;;;;;;;11.37;7.27;;;;;;;;;;5087992;28;20690;-79
2022/09/01 06:39:49;;;;;;;13.20;6.90;;;;;;;;;;5097269;28;20214;-79
2022/09/01 06:42:16;;;;;;;14.17;6.73;;;;;;;;;;5090470;28;20238;-79
2022/09/01 06:44:44;;;;;;;11.70;7.00;;;;;;;;;;5097178;28;20212;-79
2022/09/01 06:47:12;;;;;;;10.73;6.30;;;;;;;;;;5086482;28;20231;-79
2022/09/01 06:49:41;;;;;;;13.03;6.60;;;;;;;;;;5088461;28;20234;-79
2022/09/01 06:52:10;;;;;;;13.23;6.37;;;;;;;;;;5095694;28;20206;-80
2022/09/01 06:54:38;;;;;;;10.73;6.40;;;;;;;;;;5089226;28;20201;-75
2022/09/01 06:57:05;;;;;;;8.23;6.10;;;;;;;;;;5086168;28;20207;-75
2022/09/01 06:59:33;;;;;;;10.30;6.23;;;;;;;;;;5092385;28;20244;-75
2022/09/01 07:02:02;;;;;;;12.37;5.70;;;;;;;;;;5089388;28;20193;-75
2022/09/01 07:04:30;;;;;;;11.00;5.93;;;;;;;;;;5088784;28;20222;-75
2022/09/01 07:06:59;;;;;;;9.57;6.00;;;;;;;;;;5093955;28;20198;-75
2022/09/01 07:09:36;;;;;;;10.93;5.87;;;;;;;;;;5099495;28;20200;-79
2022/09/01 07:12:04;;;;;;;8.60;6.00;;;;;;;;;;5100364;28;20649;-79
2022/09/01 07:14:31;;;;;;;9.40;5.80;;;;;;;;;;5090771;28;20202;-79
2022/09/01 07:16:59;;;;;;;9.13;6.05;;;;;;;;;;5106085;28;20235;-79
2022/09/01 07:19:26;;;;;;;12.15;5.78;;;;;;;;;;5100832;28;20652;-80
2022/09/01 07:21:54;;;;;;;9.98;5.60;;;;;;;;;;5101567;28;20250;-79
2022/09/01 07:24:24;;;;;;;9.85;6.10;;;;;;;;;;5093609;28;20206;-79
2022/09/01 07:26:52;;;;;;;9.93;5.68;;;;;;;;;;5094943;28;20194;-79
2022/09/01 07:29:21;;;;;;;6.68;5.30;;;;;;;;;;5105933;28;20195;-79
2022/09/01 07:31:49;;;;;;;7.78;5.13;;;;;;;;;;5087411;28;20210;-80
2022/09/01 07:34:16;;;;;;;10.32;5.88;;;;;;;;;;5097603;28;20226;-79
2022/09/01 07:36:44;;;;;;;8.82;5.50;;;;;;;;;;5101761;28;20627;-79
2022/09/01 07:39:12;;;;;;;10.65;6.07;;;;;;;;;;5100212;28;20257;-79
2022/09/01 07:41:42;;;;;;;7.28;5.43;;;;;;;;;;5106539;28;20273;-78
2022/09/01 07:44:12;;;;;;;7.32;6.05;;;;;;;;;;5094479;28;20197;-79
2022/09/01 07:46:40;;;;;;;8.00;5.50;;;;;;;;;;5101253;28;20264;-79
2022/09/01 07:49:07;;;;;;;9.70;5.85;;;;;;;;;;5100237;28;20255;-79
2022/09/01 07:51:34;;;;;;;10.93;5.90;;;;;;;;;;5093989;28;20240;-79
2022/09/01 07:54:02;;;;;;;13.48;5.88;;;;;;;;;;5086506;28;20230;-80
2022/09/01 07:56:30;;;;;;;10.10;6.20;;;;;;;;;;5094485;28;20231;-79
2022/09/01 07:58:58;;;;;;;14.13;6.72;;;;;;;;;;5094379;28;20234;-79
2022/09/01 08:01:26;;;;;;;8.70;6.43;;;;;;;;;;5094104;28;20666;-78
2022/09/01 08:03:55;;;;;;;8.32;6.18;;;;;;;;;;5107322;28;20376;-79
2022/09/01 08:06:25;;;;;;;8.82;6.15;;;;;;;;;;5089001;28;20306;-79
2022/09/01 08:08:53;;;;;;;10.90;6.30;;;;;;;;;;5085623;28;20201;-79
2022/09/01 08:11:23;;;;;;;9.10;6.40;;;;;;;;;;5095429;28;20234;-79
2022/09/01 08:13:51;;;;;;;10.77;6.32;;;;;;;;;;5091580;28;20679;-79
2022/09/01 08:16:20;;;;;;;10.27;6.32;;;;;;;;;;5092827;28;20632;-79
2022/09/01 08:18:48;;;;;;;10.02;6.78;;;;;;;;;;5108567;28;20601;-78
2022/09/01 08:21:15;;;;;;;10.50;6.80;;;;;;;;;;5105812;28;20255;-79
2022/09/01 08:23:43;;;;;;;8.68;6.82;;;;;;;;;;5104432;28;20277;-79
2022/09/01 08:26:12;;;;;;;10.52;7.05;;;;;;;;;;5094033;28;20255;-79
2022/09/01 08:28:39;;;;;;;9.38;6.95;;;;;;;;;;5093204;28;20226;-79
2022/09/01 08:31:07;;;;;;;11.30;7.15;;;;;;;;;;5104185;28;20201;-79
2022/09/01 08:33:36;;;;;;;8.60;6.63;;;;;;;;;;5106172;28;20276;-79
2022/09/01 08:36:04;;;;;;;7.90;6.72;;;;;;;;;;5111857;28;20232;-79
2022/09/01 08:38:31;;;;;;;10.35;7.32;;;;;;;;;;5098764;28;20281;-79
2022/09/01 08:41:00;;;;;;;9.30;6.97;;;;;;;;;;5106574;28;20302;-79
2022/09/01 08:43:33;;;;;;;11.30;7.15;;;;;;;;;;5105381;28;20204;-80
2022/09/01 08:46:06;;;;;;;9.30;7.53;;;;;;;;;;5095061;28;20218;-80
2022/09/01 08:48:36;;;;;;;9.82;7.20;;;;;;;;;;5092921;28;20658;-80
2022/09/01 08:51:09;;;;;;;8.70;7.40;;;;;;;;;;5095493;28;20202;-80
2022/09/01 08:53:40;;;;;;;10.07;7.47;;;;;;;;;;5101353;28;20216;-80
2022/09/01 08:56:10;;;;;;;9.70;7.00;;;;;;;;;;5098407;28;20237;-80
2022/09/01 08:58:37;;;;;;;12.00;7.55;;;;;;;;;;5101347;28;20221;-80
2022/09/01 09:01:10;;;;;;;10.98;7.22;;;;;;;;;;5104929;28;20226;-80
2022/09/01 09:03:43;;;;;;;12.13;7.75;;;;;;;;;;5086126;28;20206;-79
2022/09/01 09:06:17;;;;;;;7.90;6.75;;;;;;;;;;5096511;28;20202;-80
2022/09/01 09:08:56;;;;;;;9.73;7.70;;;;;;;;;;5093576;28;20194;-79
2022/09/01 09:11:35;;;;;;;9.48;7.05;;;;;;;;;;5100039;28;20236;-79
2022/09/01 09:14:06;;;;;;;10.32;7.47;;;;;;;;;;5091407;28;20222;-82
2022/09/01 09:16:36;;;;;;;11.00;6.88;;;;;;;;;;5091958;28;20252;-79
2022/09/01 09:19:05;;;;;;;9.45;7.32;;;;;;;;;;5081618;28;20203;-80
2022/09/01 09:21:37;;;;;;;11.05;7.43;;;21.20;99.90;;;;;;5099918;28;20234;-79
2022/09/01 09:24:11;;;;;;;9.35;6.55;;;21.10;99.90;;;;;;5082292;28;20620;-80
2022/09/01 09:26:38;;;;;;;7.43;6.63;;;21.20;99.90;;;;;;5114091;28;20200;-80
2022/09/01 09:29:05;;;;;;;9.32;7.10;;;21.50;99.90;;;;;;5101888;28;20233;-79
2022/09/01 09:31:35;;;;;;;8.73;7.35;;;21.70;99.90;;;;;;5102048;28;20628;-80
2022/09/01 09:34:02;;;;;;;8.95;6.88;;;21.80;99.90;;;;;;5105321;28;20718;-79
2022/09/01 09:36:36;;;;;;;8.95;6.88;;;22.00;99.90;;;;;;5103602;28;20202;-79
2022/09/01 09:39:09;;;;;;;9.35;7.22;;;22.40;99.90;;;;;;5104627;28;20638;-79
2022/09/01 09:41:37;;;;;;;10.77;7.00;;;22.40;99.90;;;;;;5099102;28;20246;-80
2022/09/01 09:44:17;;;;;;;11.82;7.15;;;22.70;99.90;;;;;;5098097;28;20238;-80
2022/09/01 09:46:46;;;;;;;10.77;7.28;;;22.90;99.90;;;;;;5099731;28;20217;-79
2022/09/01 09:49:18;;;;;;;8.73;6.85;;;22.80;99.90;;;;;;5098397;28;20202;-79
2022/09/01 09:51:49;;;;;;;8.45;6.55;;;22.70;99.90;;;;;;5102296;28;20194;-80
2022/09/01 09:54:21;;;;;;;9.93;7.30;;;22.80;99.90;;;;;;5101205;28;20225;-79
2022/09/01 09:57:13;;;;;;;10.63;7.78;;;22.20;99.90;;;;;;5100691;28;20194;-79
2022/09/01 09:59:42;;;;;;;11.73;7.30;;;21.80;99.90;;;;;;5089745;28;20279;-79
2022/09/01 10:02:25;;;;;;;8.88;7.63;;;21.60;99.90;;;;;;5097823;28;20201;-80
2022/09/01 10:04:53;;;;;;;11.27;7.60;;;21.90;99.90;;;;;;5098633;28;20197;-80
2022/09/01 10:07:33;;;;;;;10.85;7.70;;;21.90;99.90;;;;;;5105425;28;20204;-80
2022/09/01 10:10:04;;;;;;;9.95;7.70;;;21.80;99.90;;;;;;5096814;28;20198;-80
2022/09/01 10:12:31;;;;;;;10.32;7.47;;;21.80;99.90;;;;;;5099693;28;20290;-80
2022/09/01 10:15:03;;;;;;;7.68;6.82;;;22.60;99.90;;;;;;5099687;28;20226;-80
2022/09/01 10:17:34;;;;;;;8.05;6.88;;;22.70;99.90;;;;;;5099614;28;20233;-80
2022/09/01 10:20:06;;;;;;;10.13;7.10;;;23.10;99.90;;;;;;5095241;28;20202;-80
2022/09/01 10:22:36;;;;;;;8.20;6.93;;;23.20;99.90;;;;;;5091592;28;20606;-79
2022/09/01 10:25:06;;;;;;;11.27;7.75;;;23.80;99.90;;;;;;5085398;28;20289;-79
2022/09/01 10:27:37;;;;;;;8.45;6.53;;;23.90;99.90;;;;;;5102315;28;20229;-79
2022/09/01 10:30:07;;;;;;;7.80;6.70;;;24.30;99.90;;;;;;5102243;28;20221;-79
2022/09/01 10:32:39;;;;;;;8.80;6.93;;;24.50;99.90;;;;;;5098514;28;20761;-80
2022/09/01 10:35:09;;;;;;;9.20;7.60;;;25.30;99.90;;;;;;5089530;28;20225;-79
2022/09/01 10:37:40;;;;;;;8.18;6.50;;;25.70;99.90;;;;;;5103759;28;20292;-79
2022/09/01 10:40:35;;;;;;;8.43;6.38;;;26.00;99.90;;;;;;5101928;28;20257;-79
2022/09/01 10:43:24;;;;;;;7.45;5.95;;;25.60;99.90;;;;;;5095461;28;20610;-79
2022/09/01 10:45:51;;;;;;;6.90;6.00;;;25.50;99.90;;;;;;5089712;28;20679;-79
2022/09/01 10:48:31;;;;;;;7.63;5.72;;;25.50;99.90;;;;;;5094767;28;20623;-79
2022/09/01 10:51:36;;;;;;;7.70;6.75;;;25.60;99.90;;;;;;5095167;28;20206;-79
2022/09/01 10:54:05;;;;;;;7.05;5.10;;;26.70;99.90;;;;;;5069967;28;20666;-79
2022/09/01 10:56:40;;;;;;;8.95;5.80;;;27.30;99.90;;;;;;5100017;28;20587;-79
2022/09/01 10:59:10;;;;;;;6.28;4.97;;;27.10;99.90;;;;;;5097304;28;20314;-78
2022/09/01 11:02:10;;;;;;;7.28;5.30;;;25.70;99.90;;;;;;5095554;28;20218;-79
2022/09/01 11:05:15;;;;;;;5.75;5.22;;;25.30;99.90;;;;;;5104811;28;20237;-79
2022/09/01 11:07:43;;;;;;;8.48;5.60;;;25.30;99.90;;;;;;5096406;28;20630;-79
2022/09/01 11:10:36;;;;;;;7.30;5.05;;;25.80;99.90;;;;;;5099279;28;20688;-79
2022/09/01 11:13:34;;;;;;;5.82;4.63;;;25.80;99.90;;;;;;5090666;28;20246;-80
2022/09/01 11:16:30;;;;;;;6.47;4.78;;;26.70;99.90;;;;;;5020787;28;20232;-80
2022/09/01 11:19:17;;;;;;;6.93;5.20;;;27.40;99.90;;;;;;5010579;28;20205;-80
2022/09/01 11:21:44;;;;;;;5.18;4.68;;;27.20;99.90;;;;;;5019972;28;20712;-80
2022/09/01 11:24:48;;;;;;;6.90;5.03;;;27.40;99.90;;;;;;5018139;28;20553;-79
2022/09/01 11:27:48;;;;;;;7.45;4.63;;;27.90;99.90;;;;;;5007066;28;20237;-79
2022/09/01 11:30:33;;;;;;;8.95;5.70;;;27.90;99.90;;;;;;5012156;28;20739;-79
2022/09/01 11:33:11;;;;;;;6.97;4.95;;;27.10;99.90;;;;;;5022571;28;20736;-79
2022/09/01 11:35:38;;;;;;;6.38;4.97;;;26.70;99.90;;;;;;5020757;28;20232;-79
2022/09/01 11:38:07;;;;;;;6.03;4.85;;;26.30;99.90;;;;;;5010479;28;20284;-79
2022/09/01 11:40:36;;;;;;;6.28;4.60;;;26.10;99.90;;;;;;5013566;28;20319;-80
2022/09/01 11:43:07;;;;;;;5.88;4.38;;;26.50;99.90;;;;;;5014905;28;20300;-79
2022/09/01 11:45:45;;;;;;;7.93;6.15;;;26.10;99.90;;;;;;5009578;28;20728;-79
2022/09/01 11:48:14;;;;;;;9.60;5.75;;;26.30;99.90;;;;;;5013882;28;20224;-79
2022/09/01 11:50:42;;;;;;;8.00;6.95;;;26.30;99.90;;;;;;5012468;28;20737;-79
2022/09/01 11:53:13;;;;;;;7.68;6.57;;;25.60;99.90;;;;;;5092470;28;20255;-79
2022/09/01 11:55:43;;;;;;;7.60;6.80;;;24.50;99.90;;;;;;5092040;28;20657;-80
2022/09/01 11:58:12;;;;;;;8.50;7.57;;;23.40;99.90;;;;;;5095030;28;20256;-79
2022/09/01 12:00:42;;;;;;;8.82;7.50;;;23.00;99.90;;;;;;5098103;28;20306;-79
2022/09/01 12:03:21;;;;;;;7.82;6.93;;;22.70;99.90;;;;;;5089716;28;20238;-79
2022/09/01 12:05:53;;;;;;;8.10;6.85;;;22.50;99.90;;;;;;5089076;28;20660;-79
2022/09/01 12:08:21;;;;;;;7.65;6.80;;;22.50;99.90;;;;;;5098503;28;20200;-79
2022/09/01 12:10:48;;;;;;;8.23;7.35;;;22.40;99.90;;;;;;5090448;28;20642;-79
2022/09/01 12:13:20;;;;;;;8.63;7.75;;;22.40;99.90;;;;;;5090165;28;20203;-79
2022/09/01 12:15:55;;;;;;;11.60;8.27;;;22.40;99.90;;;;;;5104541;28;20205;-79
2022/09/01 12:18:26;;;;;;;10.30;7.53;;;22.50;99.90;;;;;;5108230;28;20735;-79
2022/09/01 12:20:56;;;;;;;10.10;8.07;;;22.60;99.90;;;;;;5102642;28;20309;-79
2022/09/01 12:23:26;;;;;;;11.63;8.70;;;22.70;99.90;;;;;;5097812;28;20210;-79
2022/09/01 12:25:55;;;;;;;8.48;7.65;;;22.90;99.90;;;;;;5103033;28;20251;-78
2022/09/01 12:28:23;;;;;;;9.38;7.22;;;23.20;99.90;;;;;;5092170;28;20753;-79
2022/09/01 12:30:52;;;;;;;9.52;8.07;;;23.50;99.90;;;;;;5098406;28;20236;-79
2022/09/01 12:33:21;;;;;;;10.80;7.88;;;23.80;99.90;;;;;;5098050;28;20229;-79
2022/09/01 12:36:10;;;;;;;10.43;8.00;;;23.80;99.90;;;;;;5091655;28;20229;-79
2022/09/01 12:38:40;;;;;;;9.35;7.55;;;24.00;99.90;;;;;;5095456;28;20274;-79
2022/09/01 12:41:25;;;;;;;9.57;6.90;;;24.10;99.90;;;;;;5097586;28;20635;-78
2022/09/01 12:43:53;;;;;;;7.45;6.47;;;24.50;99.90;;;;;;5092445;28;20289;-79
2022/09/01 12:46:41;;;;;;;9.93;6.38;;;25.20;99.90;;;;;;5095270;28;20248;-79
2022/09/01 12:49:20;;;;;;;5.38;4.88;;;26.00;99.90;;;;;;5099681;28;20221;-79
2022/09/01 12:51:47;;;;;;;5.10;4.60;;;26.10;99.90;;;;;;5099729;28;20224;-79
2022/09/01 12:54:15;;;;;;;5.32;4.82;;;25.70;99.90;;;;;;5102054;28;20578;-78
2022/09/01 12:56:49;;;;;;;8.15;5.03;;;24.80;99.90;;;;;;5099245;28;20248;-79
2022/09/01 12:59:23;;;;;;;5.07;4.15;;;25.60;99.90;;;;;;5084084;28;20309;-79
2022/09/01 13:01:50;;;;;;;8.52;4.00;;;25.60;99.90;;;;;;5096238;28;20314;-79
2022/09/01 13:04:29;;;;;;;5.25;4.45;;;25.80;99.90;;;;;;5082868;28;20226;-79
2022/09/01 13:07:00;;;;;;;5.25;4.57;;;26.10;99.90;;;;;;5083170;28;20202;-79
2022/09/01 13:09:27;;;;;;;4.68;4.22;;;26.10;99.90;;;;;;5090104;28;20718;-79
2022/09/01 13:12:08;;;;;;;6.25;4.68;;;25.80;99.90;;;;;;5092261;28;20198;-79
2022/09/01 13:14:35;;;;;;;6.78;3.78;;;26.00;99.90;;;;;;5083779;28;20959;-79
2022/09/01 13:17:03;;;;;;;5.78;4.15;;;27.40;99.90;;;;;;5095707;28;20283;-79
2022/09/01 13:19:31;;;;;;;4.30;3.85;;;27.90;99.90;;;;;;5091795;28;20201;-79
2022/09/01 13:21:58;;;;;;;4.63;3.72;;;28.90;99.90;;;;;;5083408;28;20222;-79
2022/09/01 13:24:25;;;;;;;4.40;3.78;;;28.70;99.90;;;;;;5092263;28;20300;-79
2022/09/01 13:26:56;;;;;;;5.00;4.57;;;27.60;99.90;;;;;;5087205;28;20237;-79
2022/09/01 13:29:23;;;;;;;5.28;3.83;;;27.30;99.90;;;;;;5093285;28;21154;-79
2022/09/01 13:31:50;;;;;;;4.95;3.83;;;27.00;99.90;;;;;;5090290;28;20227;-79
2022/09/01 13:34:17;;;;;;;5.75;4.30;;;26.70;99.90;;;;;;5087858;28;20193;-79
2022/09/01 13:36:46;;;;;;;4.57;4.13;;;26.70;99.90;;;;;;5094377;28;20198;-79
2022/09/01 13:39:17;;;;;;;4.97;4.10;;;27.00;99.90;;;;;;5099048;28;20289;-79
2022/09/01 13:41:44;;;;;;;4.72;3.60;;;28.30;99.90;;;;;;5094774;28;20258;-79
2022/09/01 13:44:11;;;;;;;5.18;3.90;;;29.20;99.90;;;;;;5098097;28;20232;-79
2022/09/01 13:46:38;;;;;;;4.75;3.75;;;29.30;99.90;;;;;;5103676;28;20198;-79
2022/09/01 13:49:06;;;;;;;7.90;4.35;;;28.50;99.90;;;;;;5085154;28;20293;-79
2022/09/01 13:51:34;;;;;;;5.43;4.40;;;29.00;99.90;;;;;;5109427;28;20259;-79
2022/09/01 13:54:02;;;;;;;5.32;4.10;;;29.60;99.90;;;;;;5101112;28;20209;-79
2022/09/01 13:56:29;;;;;;;6.15;4.28;;;29.70;99.90;;;;;;5090581;28;20203;-79
2022/09/01 13:58:56;;;;;;;6.55;4.60;;;29.70;99.90;;;;;;5099695;28;20922;-79
2022/09/01 14:01:23;;;;;;;11.85;4.72;;;29.50;99.90;;;;;;5101123;28;20305;-79
2022/09/01 14:03:51;;;;;;;14.68;5.32;;;30.70;99.90;;;;;;5092189;28;20202;-80
2022/09/01 14:06:18;;;;;;;7.22;4.20;;;;;;;;;;5091680;28;20193;-79
2022/09/01 14:08:45;;;;;;;4.22;3.40;;;;;;;;;;5089252;28;20195;-79
2022/09/01 14:11:18;;;;;;;6.55;3.90;;;;;;;;;;5088867;28;20264;-79
2022/09/01 14:13:47;;;;;;;4.88;3.40;;;;;;;;;;5097356;28;20272;-79
2022/09/01 14:16:15;;;;;;;3.97;2.85;;;;;;;;;;5102683;28;20198;-78
2022/09/01 14:18:42;;;;;;;4.45;3.25;;;;;;;;;;5102899;28;20289;-78